createdAt,value
2023-07-09T00:00:12.707Z,6.20
2023-07-09T00:01:12.790Z,5.70
2023-07-09T00:02:13.425Z,6.20
2023-07-09T00:03:12.599Z,6.00
2023-07-09T00:04:12.631Z,5.80
2023-07-09T00:05:12.567Z,5.50
2023-07-09T00:06:12.568Z,5.80
2023-07-09T00:07:12.532Z,6.20
2023-07-09T00:08:45.589Z,6.50
2023-07-09T00:09:12.560Z,6.70
2023-07-09T00:10:12.555Z,6.50
2023-07-09T00:11:12.567Z,6.40
2023-07-09T00:12:14.581Z,5.80
2023-07-09T00:13:13.488Z,6.30
2023-07-09T00:14:12.660Z,6.10
2023-07-09T00:15:12.550Z,6.30
2023-07-09T00:16:13.170Z,5.90
2023-07-09T00:17:12.509Z,6.50
2023-07-09T00:18:12.445Z,6.60
2023-07-09T00:19:13.077Z,6.60
2023-07-09T00:20:12.456Z,6.70
2023-07-09T00:21:12.491Z,7.00
2023-07-09T00:22:12.532Z,6.90
2023-07-09T00:23:12.434Z,6.80
2023-07-09T00:24:13.186Z,7.30
2023-07-09T00:25:12.506Z,7.20
2023-07-09T00:26:12.483Z,7.00
2023-07-09T00:27:12.481Z,6.90
2023-07-09T00:28:12.505Z,6.70
2023-07-09T00:29:12.462Z,7.10
2023-07-09T00:30:12.451Z,7.10
2023-07-09T00:31:12.487Z,7.10
2023-07-09T00:32:12.520Z,7.10
2023-07-09T00:33:12.389Z,6.90
2023-07-09T00:34:12.393Z,6.50
2023-07-09T00:35:13.132Z,6.40
2023-07-09T00:36:12.359Z,6.80
2023-07-09T00:37:13.121Z,6.00
2023-07-09T00:38:12.380Z,6.10
2023-07-09T00:39:13.122Z,6.10
2023-07-09T00:40:12.396Z,6.30
2023-07-09T00:41:12.369Z,6.40
2023-07-09T00:42:13.023Z,6.10
2023-07-09T00:43:13.151Z,6.10
2023-07-09T00:44:13.023Z,6.70
2023-07-09T00:45:12.353Z,6.30
2023-07-09T00:46:12.319Z,6.00
2023-07-09T00:47:12.302Z,6.30
2023-07-09T00:48:12.374Z,6.20
2023-07-09T00:49:12.280Z,6.00
2023-07-09T00:50:12.304Z,6.20
2023-07-09T00:51:12.309Z,6.10
2023-07-09T00:52:12.233Z,6.60
2023-07-09T00:53:12.248Z,6.10
2023-07-09T00:54:12.244Z,6.00
2023-07-09T00:55:12.240Z,6.20
2023-07-09T00:56:12.220Z,6.60
2023-07-09T00:57:12.195Z,6.50
2023-07-09T00:58:12.254Z,6.00
2023-07-09T00:59:12.222Z,5.90
2023-07-09T01:00:12.179Z,6.30
2023-07-09T01:01:12.277Z,6.60
2023-07-09T01:02:12.184Z,6.40
2023-07-09T01:03:12.318Z,6.30
2023-07-09T01:04:12.151Z,5.90
2023-07-09T01:05:12.947Z,6.50
2023-07-09T01:06:12.131Z,6.30
2023-07-09T01:07:12.094Z,6.50
2023-07-09T01:08:12.123Z,6.30
2023-07-09T01:09:12.122Z,6.50
2023-07-09T01:10:12.111Z,6.00
2023-07-09T01:11:12.109Z,6.30
2023-07-09T01:12:12.156Z,6.40
2023-07-09T01:13:12.087Z,6.40
2023-07-09T01:14:12.160Z,6.70
2023-07-09T01:15:12.048Z,6.20
2023-07-09T01:16:12.133Z,6.60
2023-07-09T01:17:12.063Z,6.40
2023-07-09T01:18:12.125Z,6.70
2023-07-09T01:19:12.069Z,7.10
2023-07-09T01:20:12.060Z,7.10
2023-07-09T01:21:12.006Z,6.60
2023-07-09T01:22:12.013Z,6.60
2023-07-09T01:23:12.031Z,6.60
2023-07-09T01:24:12.007Z,7.30
2023-07-09T01:25:12.034Z,6.50
2023-07-09T01:26:12.680Z,6.70
2023-07-09T01:27:12.031Z,7.00
2023-07-09T01:28:11.994Z,6.90
2023-07-09T01:29:11.974Z,6.60
2023-07-09T01:30:12.009Z,6.70
2023-07-09T01:31:11.991Z,6.40
2023-07-09T01:32:11.989Z,6.40
2023-07-09T01:33:11.909Z,6.70
2023-07-09T01:34:11.887Z,6.80
2023-07-09T01:35:11.878Z,6.60
2023-07-09T01:36:11.941Z,6.30
2023-07-09T01:37:11.882Z,6.50
2023-07-09T01:38:11.890Z,6.40
2023-07-09T01:39:11.925Z,7.00
2023-07-09T01:40:20.618Z,7.00
2023-07-09T01:41:13.936Z,7.00
2023-07-09T01:42:11.888Z,6.60
2023-07-09T01:43:11.885Z,6.10
2023-07-09T01:44:12.490Z,7.10
2023-07-09T01:45:11.893Z,7.20
2023-07-09T01:46:11.884Z,6.80
2023-07-09T01:47:11.909Z,6.60
2023-07-09T01:48:11.855Z,6.60
2023-07-09T01:49:11.821Z,6.90
2023-07-09T01:50:11.788Z,6.90
2023-07-09T01:51:11.800Z,6.60
2023-07-09T01:52:11.834Z,7.30
2023-07-09T01:53:11.832Z,7.60
2023-07-09T01:54:11.829Z,7.10
2023-07-09T01:55:12.661Z,7.10
2023-07-09T01:56:11.833Z,7.50
2023-07-09T01:57:12.644Z,7.60
2023-07-09T01:58:11.751Z,7.10
2023-07-09T01:59:11.784Z,7.60
2023-07-09T02:00:11.858Z,7.10
2023-07-09T02:01:12.711Z,7.40
2023-07-09T02:02:11.804Z,7.00
2023-07-09T02:03:11.726Z,6.90
2023-07-09T02:04:12.743Z,6.70
2023-07-09T02:05:11.735Z,6.80
2023-07-09T02:06:11.760Z,6.80
2023-07-09T02:07:11.691Z,6.70
2023-07-09T02:08:11.715Z,7.10
2023-07-09T02:09:12.746Z,6.90
2023-07-09T02:10:11.696Z,6.80
2023-07-09T02:11:11.679Z,6.70
2023-07-09T02:12:11.693Z,6.80
2023-07-09T02:13:11.688Z,7.00
2023-07-09T02:14:12.086Z,7.20
2023-07-09T02:15:11.661Z,7.40
2023-07-09T02:16:13.224Z,7.10
2023-07-09T02:17:12.192Z,7.00
2023-07-09T02:18:11.654Z,7.30
2023-07-09T02:19:11.614Z,7.00
2023-07-09T02:20:11.577Z,7.10
2023-07-09T02:21:11.572Z,7.10
2023-07-09T02:22:11.601Z,7.20
2023-07-09T02:23:12.567Z,7.40
2023-07-09T02:24:11.562Z,6.90
2023-07-09T02:25:12.478Z,6.90
2023-07-09T02:26:11.589Z,7.10
2023-07-09T02:27:11.565Z,6.70
2023-07-09T02:28:12.503Z,6.90
2023-07-09T02:29:11.663Z,7.20
2023-07-09T02:30:11.596Z,7.20
2023-07-09T02:31:11.548Z,7.00
2023-07-09T02:32:12.165Z,7.40
2023-07-09T02:33:11.583Z,6.90
2023-07-09T02:34:15.596Z,7.50
2023-07-09T02:35:37.005Z,8.10
2023-07-09T02:36:42.943Z,7.70
2023-07-09T02:37:24.981Z,7.00
2023-07-09T02:38:30.036Z,7.00
2023-07-09T02:39:44.017Z,7.50
2023-07-09T02:40:19.473Z,7.10
2023-07-09T02:41:40.461Z,7.40
2023-07-09T02:42:23.025Z,7.90
2023-07-09T02:43:53.540Z,8.10
2023-07-09T02:44:43.439Z,8.00
2023-07-09T02:45:37.811Z,7.70
2023-07-09T02:46:28.951Z,7.60
2023-07-09T02:47:11.415Z,7.20
2023-07-09T02:48:11.358Z,7.60
2023-07-09T02:49:11.353Z,7.40
2023-07-09T02:50:11.364Z,7.80
2023-07-09T02:51:11.322Z,7.90
2023-07-09T02:52:11.364Z,7.40
2023-07-09T02:53:11.308Z,7.20
2023-07-09T02:54:11.365Z,7.20
2023-07-09T02:55:11.328Z,7.40
2023-07-09T02:56:11.316Z,7.70
2023-07-09T02:57:11.321Z,7.20
2023-07-09T02:58:11.333Z,6.90
2023-07-09T02:59:11.269Z,7.60
2023-07-09T03:00:11.394Z,7.60
2023-07-09T03:01:11.254Z,7.40
2023-07-09T03:02:11.490Z,7.20
2023-07-09T03:03:11.314Z,7.60
2023-07-09T03:04:12.163Z,7.30
2023-07-09T03:05:11.283Z,8.10
2023-07-09T03:06:12.211Z,7.60
2023-07-09T03:07:11.361Z,7.60
2023-07-09T03:08:11.232Z,7.50
2023-07-09T03:09:11.226Z,7.50
2023-07-09T03:10:12.202Z,7.50
2023-07-09T03:11:11.204Z,7.70
2023-07-09T03:12:11.238Z,7.60
2023-07-09T03:13:12.175Z,7.20
2023-07-09T03:14:11.352Z,7.20
2023-07-09T03:15:11.145Z,7.00
2023-07-09T03:16:11.138Z,7.30
2023-07-09T03:17:11.111Z,6.90
2023-07-09T03:18:11.110Z,7.10
2023-07-09T03:19:11.188Z,7.60
2023-07-09T03:20:11.710Z,7.10
2023-07-09T03:21:11.134Z,7.50
2023-07-09T03:22:11.203Z,7.70
2023-07-09T03:23:11.145Z,7.60
2023-07-09T03:24:11.109Z,7.70
2023-07-09T03:25:11.958Z,7.70
2023-07-09T03:26:11.144Z,7.80
2023-07-09T03:27:11.700Z,7.50
2023-07-09T03:28:11.034Z,7.20
2023-07-09T03:29:11.146Z,7.60
2023-07-09T03:30:11.043Z,7.80
2023-07-09T03:31:11.024Z,8.00
2023-07-09T03:32:11.192Z,7.70
2023-07-09T03:33:12.065Z,7.70
2023-07-09T03:34:11.715Z,8.20
2023-07-09T03:35:11.530Z,8.20
2023-07-09T03:36:11.083Z,8.10
2023-07-09T03:37:11.523Z,8.20
2023-07-09T03:38:11.003Z,7.50
2023-07-09T03:39:11.018Z,8.10
2023-07-09T03:40:10.949Z,8.00
2023-07-09T03:41:10.952Z,7.40
2023-07-09T03:42:12.703Z,8.00
2023-07-09T03:43:10.978Z,8.70
2023-07-09T03:44:10.949Z,8.00
2023-07-09T03:45:10.953Z,7.30
2023-07-09T03:46:10.917Z,7.60
2023-07-09T03:47:11.057Z,7.80
2023-07-09T04:03:52.250Z,7.50
2023-07-09T04:04:53.480Z,7.80
2023-07-09T04:05:53.400Z,8.00
2023-07-09T04:06:53.328Z,8.70
2023-07-09T04:07:53.328Z,8.70
2023-07-09T04:08:53.357Z,8.90
2023-07-09T04:09:53.385Z,9.10
2023-07-09T04:10:53.362Z,8.90
2023-07-09T04:11:53.295Z,8.40
2023-07-09T04:12:53.312Z,8.10
2023-07-09T04:13:53.370Z,8.00
2023-07-09T04:14:53.344Z,8.20
2023-07-09T04:15:54.495Z,8.00
2023-07-09T04:16:53.976Z,8.20
2023-07-09T04:17:53.289Z,7.70
2023-07-09T04:18:53.356Z,8.00
2023-07-09T04:19:53.332Z,7.70
2023-07-09T04:20:53.241Z,8.20
2023-07-09T04:21:53.220Z,7.80
2023-07-09T04:22:53.253Z,8.00
2023-07-09T04:23:53.224Z,8.30
2023-07-09T04:24:53.236Z,7.40
2023-07-09T04:25:53.345Z,7.80
2023-07-09T04:26:53.213Z,8.30
2023-07-09T04:27:53.210Z,8.30
2023-07-09T04:28:53.192Z,7.40
2023-07-09T04:29:53.267Z,9.10
2023-07-09T04:30:53.173Z,8.60
2023-07-09T04:31:53.276Z,8.30
2023-07-09T04:32:53.219Z,8.50
2023-07-09T04:33:53.163Z,8.40
2023-07-09T04:34:53.129Z,8.40
2023-07-09T04:35:53.122Z,7.80
2023-07-09T04:36:53.142Z,7.90
2023-07-09T04:37:53.098Z,7.90
2023-07-09T04:38:53.090Z,7.50
2023-07-09T04:39:53.101Z,7.80
2023-07-09T04:40:53.110Z,7.80
2023-07-09T04:41:54.116Z,7.70
2023-07-09T04:42:53.144Z,8.00
2023-07-09T04:43:53.129Z,7.80
2023-07-09T04:44:53.221Z,8.10
2023-07-09T04:45:53.120Z,8.10
2023-07-09T04:46:53.076Z,7.80
2023-07-09T04:47:53.110Z,8.40
2023-07-09T04:48:53.049Z,7.60
2023-07-09T04:49:53.027Z,8.00
2023-07-09T04:50:53.046Z,7.70
2023-07-09T04:51:53.012Z,7.70
2023-07-09T04:52:53.073Z,7.80
2023-07-09T04:53:53.029Z,7.30
2023-07-09T04:54:53.056Z,7.90
2023-07-09T04:55:53.036Z,7.40
2023-07-09T04:56:53.126Z,8.00
2023-07-09T04:57:52.991Z,7.80
2023-07-09T04:58:52.986Z,8.10
2023-07-09T04:59:52.976Z,7.30
2023-07-09T05:00:53.029Z,8.10
2023-07-09T05:01:52.991Z,7.50
2023-07-09T05:02:52.968Z,7.90
2023-07-09T05:03:52.955Z,7.80
2023-07-09T05:04:52.940Z,8.20
2023-07-09T05:05:52.876Z,7.80
2023-07-09T05:06:52.893Z,8.00
2023-07-09T05:07:53.036Z,7.90
2023-07-09T05:08:52.895Z,8.00
2023-07-09T05:09:52.872Z,8.50
2023-07-09T05:10:53.874Z,7.60
2023-07-09T05:11:52.883Z,7.90
2023-07-09T05:12:53.522Z,8.60
2023-07-09T05:13:54.275Z,7.50
2023-07-09T05:14:54.476Z,7.50
2023-07-09T05:15:52.880Z,7.70
2023-07-09T05:16:52.823Z,7.90
2023-07-09T05:18:25.353Z,7.80
2023-07-09T05:18:53.499Z,7.90
2023-07-09T05:19:52.797Z,8.30
2023-07-09T05:20:52.748Z,8.10
2023-07-09T05:21:52.771Z,8.00
2023-07-09T05:22:53.475Z,8.50
2023-07-09T05:23:52.813Z,8.00
2023-07-09T05:24:53.520Z,8.00
2023-07-09T05:25:52.816Z,7.90
2023-07-09T05:26:53.264Z,7.90
2023-07-09T05:27:52.755Z,8.40
2023-07-09T05:28:52.743Z,7.90
2023-07-09T05:29:52.711Z,8.00
2023-07-09T05:30:52.754Z,8.30
2023-07-09T05:31:52.727Z,7.70
2023-07-09T05:32:52.729Z,7.80
2023-07-09T05:33:52.710Z,8.10
2023-07-09T05:34:52.720Z,7.90
2023-07-09T05:35:52.710Z,8.30
2023-07-09T05:36:52.712Z,8.40
2023-07-09T05:37:52.748Z,8.40
2023-07-09T05:38:52.709Z,8.30
2023-07-09T05:39:52.659Z,8.10
2023-07-09T05:40:52.656Z,8.40
2023-07-09T05:41:52.646Z,7.90
2023-07-09T05:42:52.634Z,8.40
2023-07-09T05:43:52.663Z,8.10
2023-07-09T05:44:52.645Z,8.20
2023-07-09T05:45:52.643Z,8.20
2023-07-09T05:46:52.650Z,8.20
2023-07-09T05:47:52.574Z,8.10
2023-07-09T05:48:53.380Z,8.80
2023-07-09T05:49:53.717Z,8.60
2023-07-09T05:50:52.578Z,8.80
2023-07-09T05:51:52.622Z,8.30
2023-07-09T05:52:52.594Z,8.40
2023-07-09T05:53:52.597Z,7.90
2023-07-09T05:54:52.566Z,8.70
2023-07-09T05:55:52.528Z,8.60
2023-07-09T05:56:52.571Z,9.40
2023-07-09T05:58:24.422Z,8.90
2023-07-09T05:58:52.478Z,9.20
2023-07-09T05:59:52.465Z,8.60
2023-07-09T06:00:52.502Z,8.80
2023-07-09T06:01:54.912Z,8.70
2023-07-09T06:02:53.129Z,9.10
2023-07-09T06:03:53.128Z,8.90
2023-07-09T06:04:52.496Z,9.40
2023-07-09T06:05:52.497Z,8.30
2023-07-09T06:06:52.502Z,8.90
2023-07-09T06:07:53.482Z,9.00
2023-07-09T06:08:52.488Z,9.00
2023-07-09T06:09:52.465Z,8.90
2023-07-09T06:10:52.447Z,8.80
2023-07-09T06:11:52.418Z,9.40
2023-07-09T06:12:52.435Z,9.10
2023-07-09T06:13:52.489Z,9.00
2023-07-09T06:14:52.458Z,9.40
2023-07-09T06:15:52.443Z,8.60
2023-07-09T06:16:52.487Z,9.00
2023-07-09T06:17:52.517Z,8.80
2023-07-09T06:18:52.459Z,8.80
2023-07-09T06:19:52.452Z,8.90
2023-07-09T06:20:52.399Z,8.40
2023-07-09T06:21:52.403Z,8.90
2023-07-09T06:22:52.317Z,9.10
2023-07-09T06:23:52.342Z,8.50
2023-07-09T06:24:52.360Z,9.00
2023-07-09T06:25:52.316Z,8.60
2023-07-09T06:26:52.317Z,8.30
2023-07-09T06:27:52.551Z,9.10
2023-07-09T06:28:52.343Z,9.00
2023-07-09T06:29:52.375Z,8.80
2023-07-09T06:30:53.190Z,9.00
2023-07-09T06:31:52.287Z,8.40
2023-07-09T06:32:52.381Z,9.10
2023-07-09T06:33:52.283Z,8.80
2023-07-09T06:34:52.371Z,8.80
2023-07-09T06:35:52.286Z,8.50
2023-07-09T06:36:52.320Z,9.00
2023-07-09T06:37:52.250Z,9.60
2023-07-09T06:38:52.201Z,9.60
2023-07-09T06:39:52.312Z,9.70
2023-07-09T06:40:52.220Z,10.20
2023-07-09T06:41:52.232Z,9.60
2023-07-09T06:42:53.024Z,10.00
2023-07-09T06:43:52.323Z,9.70
2023-07-09T06:44:52.895Z,9.40
2023-07-09T06:45:52.242Z,9.70
2023-07-09T06:46:52.297Z,9.30
2023-07-09T06:47:52.305Z,8.80
2023-07-09T06:48:52.226Z,9.30
2023-07-09T06:49:52.186Z,9.40
2023-07-09T06:50:52.146Z,8.80
2023-07-09T06:51:52.191Z,9.50
2023-07-09T06:52:52.137Z,9.70
2023-07-09T06:53:52.136Z,9.50
2023-07-09T06:54:52.102Z,9.40
2023-07-09T06:55:52.144Z,9.80
2023-07-09T06:56:53.050Z,10.00
2023-07-09T06:57:52.072Z,9.80
2023-07-09T06:58:52.175Z,9.80
2023-07-09T06:59:53.071Z,9.20
2023-07-09T07:00:52.116Z,9.70
2023-07-09T07:01:52.158Z,9.50
2023-07-09T07:02:53.095Z,9.60
2023-07-09T07:03:52.131Z,9.50
2023-07-09T07:04:52.041Z,9.10
2023-07-09T07:05:52.950Z,8.80
2023-07-09T07:06:52.055Z,9.10
2023-07-09T07:07:52.030Z,9.10
2023-07-09T07:08:52.917Z,8.90
2023-07-09T07:09:52.062Z,9.00
2023-07-09T07:10:52.033Z,9.70
2023-07-09T07:11:52.025Z,9.20
2023-07-09T07:12:52.030Z,10.00
2023-07-09T07:13:52.159Z,9.10
2023-07-09T07:14:52.574Z,9.20
2023-07-09T07:15:52.013Z,9.50
2023-07-09T07:16:51.994Z,9.20
2023-07-09T07:17:52.207Z,9.00
2023-07-09T07:18:52.024Z,8.90
2023-07-09T07:19:53.072Z,8.50
2023-07-09T07:20:51.942Z,8.50
2023-07-09T07:21:52.949Z,8.90
2023-07-09T07:22:51.973Z,9.10
2023-07-09T07:23:53.826Z,9.10
2023-07-09T07:24:52.939Z,8.70
2023-07-09T07:25:52.040Z,8.90
2023-07-09T07:26:51.901Z,8.80
2023-07-09T07:27:52.639Z,9.40
2023-07-09T07:28:51.899Z,8.40
2023-07-09T07:29:51.996Z,9.50
2023-07-09T07:30:51.863Z,8.70
2023-07-09T07:31:51.872Z,8.20
2023-07-09T07:32:51.884Z,8.30
2023-07-09T07:33:52.832Z,8.60
2023-07-09T07:34:51.823Z,8.30
2023-07-09T07:36:16.537Z,7.90
2023-07-09T07:36:53.907Z,7.90
2023-07-09T07:37:51.798Z,7.30
2023-07-09T07:38:51.829Z,7.20
2023-07-09T07:39:54.486Z,7.60
2023-07-09T07:40:51.830Z,7.10
2023-07-09T07:41:51.836Z,6.80
2023-07-09T07:42:51.847Z,6.60
2023-07-09T07:43:51.820Z,6.70
2023-07-09T07:44:51.798Z,7.00
2023-07-09T07:45:51.804Z,6.70
2023-07-09T07:46:51.910Z,7.10
2023-07-09T07:47:51.874Z,7.10
2023-07-09T07:48:51.760Z,6.90
2023-07-09T07:49:51.923Z,6.90
2023-07-09T07:50:51.745Z,7.20
2023-07-09T07:51:51.749Z,7.40
2023-07-09T07:52:51.788Z,7.30
2023-07-09T07:53:51.799Z,7.40
2023-07-09T07:54:51.710Z,6.90
2023-07-09T07:55:52.520Z,7.30
2023-07-09T07:56:51.953Z,7.10
2023-07-09T07:57:51.790Z,6.80
2023-07-09T07:58:51.720Z,6.90
2023-07-09T07:59:53.663Z,6.50
2023-07-09T08:00:51.659Z,6.80
2023-07-09T08:01:51.730Z,6.70
2023-07-09T08:02:51.671Z,6.60
2023-07-09T08:03:51.725Z,6.90
2023-07-09T08:04:51.686Z,6.70
2023-07-09T08:05:51.725Z,6.70
2023-07-09T08:06:51.630Z,6.30
2023-07-09T08:07:51.611Z,6.60
2023-07-09T08:08:51.789Z,5.90
2023-07-09T08:09:52.602Z,6.00
2023-07-09T08:10:51.694Z,5.70
2023-07-09T08:11:52.459Z,6.20
2023-07-09T08:12:51.626Z,6.10
2023-07-09T08:13:51.732Z,6.40
2023-07-09T08:14:51.580Z,6.30
2023-07-09T08:15:51.612Z,6.20
2023-07-09T08:16:51.611Z,6.10
2023-07-09T08:17:51.623Z,6.00
2023-07-09T08:18:51.630Z,6.30
2023-07-09T08:19:51.953Z,6.00
2023-07-09T08:20:51.603Z,6.10
2023-07-09T08:21:51.572Z,5.50
2023-07-09T08:22:51.545Z,6.00
2023-07-09T08:23:51.547Z,6.20
2023-07-09T08:24:51.536Z,6.10
2023-07-09T08:25:51.465Z,5.60
2023-07-09T08:26:52.524Z,5.60
2023-07-09T08:27:51.478Z,5.90
2023-07-09T08:29:23.921Z,6.30
2023-07-09T08:30:25.472Z,6.10
2023-07-09T08:30:51.420Z,6.10
2023-07-09T08:31:51.420Z,5.70
2023-07-09T08:32:51.501Z,5.90
2023-07-09T08:33:51.420Z,5.70
2023-07-09T08:35:25.444Z,5.90
2023-07-09T08:35:53.432Z,6.10
2023-07-09T08:36:52.016Z,5.90
2023-07-09T08:37:51.411Z,6.00
2023-07-09T08:38:51.451Z,5.70
2023-07-09T08:39:52.189Z,5.40
2023-07-09T08:40:51.423Z,5.70
2023-07-09T08:41:53.405Z,5.90
2023-07-09T08:43:01.590Z,5.70
2023-07-09T08:43:52.392Z,6.00
2023-07-09T08:44:52.200Z,5.80
2023-07-09T08:45:51.376Z,5.70
2023-07-09T08:46:51.345Z,6.10
2023-07-09T08:47:51.367Z,5.70
2023-07-09T08:48:51.313Z,5.80
2023-07-09T08:49:51.369Z,5.70
2023-07-09T08:50:52.051Z,5.80
2023-07-09T08:51:51.933Z,5.50
2023-07-09T08:52:52.165Z,6.20
2023-07-09T08:53:51.289Z,5.30
2023-07-09T08:54:51.298Z,5.40
2023-07-09T08:55:51.336Z,5.40
2023-07-09T08:56:51.320Z,5.90
2023-07-09T08:57:51.300Z,5.40
2023-07-09T08:58:51.333Z,5.80
2023-07-09T08:59:51.282Z,6.20
2023-07-09T09:00:53.568Z,5.80
2023-07-09T09:01:52.330Z,6.10
2023-07-09T09:02:51.334Z,6.00
2023-07-09T09:03:51.286Z,5.60
2023-07-09T09:04:51.237Z,5.80
2023-07-09T09:05:51.236Z,5.90
2023-07-09T09:06:51.219Z,5.60
2023-07-09T09:07:51.237Z,5.70
2023-07-09T09:08:51.272Z,5.00
2023-07-09T09:09:51.244Z,5.30
2023-07-09T09:10:51.248Z,5.60
2023-07-09T09:11:51.254Z,5.60
2023-07-09T09:12:51.253Z,5.40
2023-07-09T09:13:51.455Z,5.40
2023-07-09T09:14:51.275Z,5.50
2023-07-09T09:15:51.454Z,5.20
2023-07-09T09:16:51.184Z,5.30
2023-07-09T09:17:51.215Z,5.20
2023-07-09T09:18:51.154Z,5.10
2023-07-09T09:19:51.160Z,5.10
2023-07-09T09:20:51.147Z,5.20
2023-07-09T09:21:51.157Z,4.70
2023-07-09T09:22:51.156Z,4.60
2023-07-09T09:23:51.114Z,4.40
2023-07-09T09:24:51.149Z,4.10
2023-07-09T09:25:55.355Z,4.10
2023-07-09T09:26:53.129Z,4.30
2023-07-09T09:27:52.193Z,4.10
2023-07-09T09:28:51.097Z,4.00
2023-07-09T09:29:51.086Z,4.00
2023-07-09T09:30:51.106Z,4.30
2023-07-09T09:31:51.117Z,4.20
2023-07-09T09:32:51.081Z,4.30
2023-07-09T09:33:51.086Z,4.10
2023-07-09T09:34:51.069Z,4.30
2023-07-09T09:35:51.218Z,4.50
2023-07-09T09:36:51.944Z,4.20
2023-07-09T09:37:51.072Z,4.00
2023-07-09T09:38:52.071Z,4.10
2023-07-09T09:40:03.260Z,4.50
2023-07-09T09:40:53.296Z,4.20
2023-07-09T09:41:51.624Z,4.50
2023-07-09T09:42:51.018Z,4.20
2023-07-09T09:43:50.986Z,4.90
2023-07-09T09:44:51.011Z,4.20
2023-07-09T09:45:51.074Z,4.40
2023-07-09T09:46:51.029Z,4.50
2023-07-09T09:47:51.004Z,4.30
2023-07-09T09:48:50.977Z,4.40
2023-07-09T09:49:50.973Z,4.80
2023-07-09T09:50:51.011Z,4.10
2023-07-09T09:51:51.040Z,4.30
2023-07-09T09:52:50.998Z,4.90
2023-07-09T09:53:51.170Z,4.40
2023-07-09T09:55:24.099Z,4.70
2023-07-09T09:55:50.925Z,4.40
2023-07-09T09:56:50.929Z,4.60
2023-07-09T09:57:50.880Z,4.80
2023-07-09T09:59:24.329Z,4.30
2023-07-09T09:59:51.582Z,4.40
2023-07-09T10:00:50.948Z,4.10
2023-07-09T10:01:51.787Z,4.40
2023-07-09T10:02:51.004Z,4.50
2023-07-09T10:03:52.764Z,4.50
2023-07-09T10:04:51.745Z,4.50
2023-07-09T10:05:50.877Z,4.60
2023-07-09T10:06:50.892Z,4.50
2023-07-09T10:07:50.905Z,4.40
2023-07-09T10:08:50.916Z,4.40
2023-07-09T10:09:53.056Z,4.50
2023-07-09T10:10:50.911Z,4.50
2023-07-09T10:12:23.672Z,4.30
2023-07-09T10:12:51.346Z,4.30
2023-07-09T10:13:50.869Z,4.20
2023-07-09T10:14:50.909Z,4.40
2023-07-09T10:15:50.844Z,4.60
2023-07-09T10:16:50.854Z,4.50
2023-07-09T10:17:50.998Z,4.40
2023-07-09T10:18:50.939Z,4.40
2023-07-09T10:19:50.920Z,4.20
2023-07-09T10:20:50.822Z,4.10
2023-07-09T10:21:50.807Z,4.60
2023-07-09T10:22:50.812Z,4.40
2023-07-09T10:23:51.796Z,4.60
2023-07-09T10:24:50.769Z,4.30
2023-07-09T10:25:51.881Z,4.80
2023-07-09T10:26:50.776Z,4.90
2023-07-09T10:27:50.854Z,4.60
2023-07-09T10:28:50.795Z,4.90
2023-07-09T10:29:51.727Z,4.60
2023-07-09T10:30:50.880Z,5.10
2023-07-09T10:31:51.294Z,4.50
2023-07-09T10:32:50.864Z,5.30
2023-07-09T10:33:50.745Z,4.80
2023-07-09T10:34:50.889Z,5.00
2023-07-09T10:35:50.814Z,4.50
2023-07-09T10:36:50.714Z,4.30
2023-07-09T10:37:50.773Z,4.40
2023-07-09T10:38:50.724Z,4.70
2023-07-09T10:39:51.589Z,4.50
2023-07-09T10:40:50.752Z,4.60
2023-07-09T10:41:51.691Z,4.50
2023-07-09T10:42:50.727Z,4.70
2023-07-09T10:43:50.765Z,4.50
2023-07-09T10:44:52.650Z,4.40
2023-07-09T10:45:51.670Z,4.70
2023-07-09T10:46:50.813Z,4.90
2023-07-09T10:47:50.745Z,4.40
2023-07-09T10:48:50.711Z,4.50
2023-07-09T10:49:51.602Z,4.20
2023-07-09T10:50:50.731Z,4.50
2023-07-09T10:51:50.694Z,4.50
2023-07-09T10:52:50.631Z,4.50
2023-07-09T10:53:53.388Z,4.80
2023-07-09T10:54:50.657Z,4.60
2023-07-09T10:55:50.618Z,4.60
2023-07-09T10:56:51.245Z,4.80
2023-07-09T10:57:50.635Z,4.60
2023-07-09T10:58:50.644Z,4.40
2023-07-09T10:59:51.241Z,4.20
2023-07-09T11:00:50.654Z,4.40
2023-07-09T11:01:50.633Z,4.30
2023-07-09T11:02:50.653Z,4.80
2023-07-09T11:03:51.328Z,4.30
2023-07-09T11:04:50.524Z,5.00
2023-07-09T11:05:50.555Z,4.80
2023-07-09T11:06:51.738Z,4.20
2023-07-09T11:07:50.552Z,4.70
2023-07-09T11:08:51.410Z,4.50
2023-07-09T11:09:51.200Z,5.10
2023-07-09T11:10:50.619Z,4.90
2023-07-09T11:11:50.561Z,4.50
2023-07-09T11:12:51.304Z,4.30
2023-07-09T11:13:52.970Z,4.40
2023-07-09T11:14:51.506Z,4.80
2023-07-09T11:15:50.626Z,4.50
2023-07-09T11:16:50.535Z,4.50
2023-07-09T11:17:50.520Z,4.80
2023-07-09T11:18:50.483Z,4.80
2023-07-09T11:19:50.634Z,4.50
2023-07-09T11:20:50.489Z,4.70
2023-07-09T11:21:50.442Z,4.70
2023-07-09T11:22:50.430Z,4.60
2023-07-09T11:23:50.511Z,4.40
2023-07-09T11:24:50.444Z,4.30
2023-07-09T11:25:50.492Z,4.40
2023-07-09T11:26:51.034Z,4.60
2023-07-09T11:27:50.434Z,4.80
2023-07-09T11:28:50.475Z,4.80
2023-07-09T11:29:51.112Z,4.70
2023-07-09T11:30:50.422Z,4.90
2023-07-09T11:31:50.444Z,4.40
2023-07-09T11:32:50.451Z,4.60
2023-07-09T11:33:50.433Z,4.60
2023-07-09T11:34:50.382Z,4.30
2023-07-09T11:35:50.400Z,4.90
2023-07-09T11:37:23.827Z,4.30
2023-07-09T11:37:56.765Z,4.90
2023-07-09T11:38:50.360Z,4.70
2023-07-09T11:39:50.694Z,4.60
2023-07-09T11:40:50.320Z,4.60
2023-07-09T11:41:50.933Z,4.90
2023-07-09T11:42:50.391Z,4.50
2023-07-09T11:43:50.355Z,4.10
2023-07-09T11:44:50.389Z,4.40
2023-07-09T11:45:51.215Z,4.20
2023-07-09T11:46:50.289Z,4.50
2023-07-09T11:47:50.316Z,4.70
2023-07-09T11:48:50.342Z,4.90
2023-07-09T11:49:50.324Z,4.60
2023-07-09T11:50:50.260Z,4.40
2023-07-09T11:51:50.257Z,4.50
2023-07-09T11:52:50.309Z,4.80
2023-07-09T11:53:50.271Z,4.20
2023-07-09T11:54:50.414Z,4.30
2023-07-09T11:55:50.284Z,4.60
2023-07-09T11:56:50.237Z,4.70
2023-07-09T11:57:50.230Z,4.60
2023-07-09T11:58:50.206Z,4.60
2023-07-09T11:59:50.209Z,4.70
2023-07-09T12:00:50.262Z,5.10
2023-07-09T12:01:50.296Z,4.40
2023-07-09T12:02:50.186Z,4.70
2023-07-09T12:03:50.274Z,4.50
2023-07-09T12:04:50.462Z,4.30
2023-07-09T12:05:50.954Z,4.80
2023-07-09T12:06:50.324Z,4.40
2023-07-09T12:07:50.172Z,4.80
2023-07-09T12:08:50.254Z,4.50
2023-07-09T12:09:50.151Z,4.50
2023-07-09T12:10:51.117Z,4.90
2023-07-09T12:11:50.232Z,4.50
2023-07-09T12:12:50.123Z,4.80
2023-07-09T12:13:50.185Z,5.00
2023-07-09T12:14:50.158Z,4.70
2023-07-09T12:15:50.970Z,4.60
2023-07-09T12:16:50.796Z,4.70
2023-07-09T12:17:50.163Z,4.80
2023-07-09T12:18:50.133Z,5.00
2023-07-09T12:19:50.968Z,4.20
2023-07-09T12:20:50.118Z,4.80
2023-07-09T12:21:50.123Z,4.50
2023-07-09T12:22:51.478Z,4.60
2023-07-09T12:23:50.127Z,5.10
2023-07-09T12:24:50.076Z,4.70
2023-07-09T12:25:50.057Z,4.50
2023-07-09T12:26:50.058Z,4.40
2023-07-09T12:27:50.050Z,5.00
2023-07-09T12:28:50.064Z,4.80
2023-07-09T12:29:50.057Z,4.60
2023-07-09T12:30:50.750Z,4.50
2023-07-09T12:31:50.135Z,4.70
2023-07-09T12:32:50.747Z,4.60
2023-07-09T12:33:50.042Z,4.90
2023-07-09T12:34:49.996Z,4.60
2023-07-09T12:35:50.094Z,4.90
2023-07-09T12:36:51.013Z,4.60
2023-07-09T12:37:49.972Z,4.10
2023-07-09T12:38:49.965Z,4.50
2023-07-09T12:39:49.943Z,4.70
2023-07-09T12:40:50.021Z,4.90
2023-07-09T12:41:50.030Z,4.80
2023-07-09T12:42:50.017Z,4.60
2023-07-09T12:43:49.966Z,4.50
2023-07-09T12:44:50.731Z,4.80
2023-07-09T12:45:50.006Z,4.70
2023-07-09T12:46:49.940Z,5.10
2023-07-09T12:47:50.033Z,4.40
2023-07-09T12:48:49.878Z,4.70
2023-07-09T12:49:49.975Z,4.60
2023-07-09T12:50:49.936Z,4.80
2023-07-09T12:51:49.907Z,4.60
2023-07-09T12:52:49.901Z,4.90
2023-07-09T12:53:49.881Z,4.80
2023-07-09T12:54:49.947Z,4.90
2023-07-09T12:55:49.840Z,4.70
2023-07-09T12:56:49.877Z,4.60
2023-07-09T12:57:49.855Z,5.00
2023-07-09T12:58:49.893Z,4.60
2023-07-09T12:59:49.888Z,4.60
2023-07-09T13:00:50.428Z,4.60
2023-07-09T13:01:49.938Z,4.30
2023-07-09T13:02:49.925Z,4.20
2023-07-09T13:03:49.887Z,4.80
2023-07-09T13:04:49.837Z,4.40
2023-07-09T13:05:49.846Z,4.70
2023-07-09T13:06:49.833Z,4.50
2023-07-09T13:07:49.778Z,4.80
2023-07-09T13:08:50.442Z,4.70
2023-07-09T13:09:49.779Z,4.70
2023-07-09T13:10:49.797Z,4.60
2023-07-09T13:11:50.510Z,5.00
2023-07-09T13:12:49.781Z,4.40
2023-07-09T13:14:22.354Z,5.60
2023-07-09T13:15:24.886Z,4.90
2023-07-09T13:15:50.298Z,5.00
2023-07-09T13:16:49.688Z,4.90
2023-07-09T13:17:49.698Z,4.50
2023-07-09T13:18:49.674Z,5.00
2023-07-09T13:19:49.650Z,4.70
2023-07-09T13:20:49.713Z,4.90
2023-07-09T13:21:49.675Z,4.40
2023-07-09T13:22:50.589Z,5.00
2023-07-09T13:23:49.706Z,4.30
2023-07-09T13:24:50.476Z,4.90
2023-07-09T13:25:50.478Z,4.70
2023-07-09T13:26:49.652Z,4.90
2023-07-09T13:27:51.498Z,4.90
2023-07-09T13:28:49.694Z,4.80
2023-07-09T13:29:49.731Z,5.30
2023-07-09T13:30:50.644Z,4.90
2023-07-09T13:31:49.739Z,4.50
2023-07-09T13:32:49.850Z,5.20
2023-07-09T13:33:49.912Z,4.90